createdAt,value
2018-04-08T00:02:02.924Z,10.23
2018-04-08T00:04:30.494Z,10.43
2018-04-08T00:06:58.943Z,12.30
2018-04-08T00:09:26.484Z,15.27
2018-04-08T00:11:54.046Z,11.93
2018-04-08T00:14:21.586Z,11.27
2018-04-08T00:16:49.144Z,13.93
2018-04-08T00:19:16.772Z,10.40
2018-04-08T00:21:44.344Z,11.00
2018-04-08T00:24:11.879Z,9.13
2018-04-08T00:26:40.212Z,13.40
2018-04-08T00:29:07.757Z,10.30
2018-04-08T00:31:35.314Z,10.37
2018-04-08T00:34:02.873Z,9.00
2018-04-08T00:36:30.443Z,8.10
2018-04-08T00:38:58.013Z,8.90
2018-04-08T00:41:25.565Z,7.73
2018-04-08T00:43:53.106Z,11.30
2018-04-08T00:46:20.664Z,8.63
2018-04-08T00:48:48.201Z,9.13
2018-04-08T00:51:15.756Z,11.87
2018-04-08T00:53:43.305Z,9.27
2018-04-08T00:56:10.872Z,10.37
2018-04-08T00:58:39.217Z,9.77
2018-04-08T01:01:07.761Z,10.10
2018-04-08T01:03:35.305Z,11.30
2018-04-08T01:06:02.862Z,8.97
2018-04-08T01:08:30.392Z,12.27
2018-04-08T01:10:57.950Z,11.47
2018-04-08T01:13:25.516Z,7.93
2018-04-08T01:15:53.087Z,10.27
2018-04-08T01:18:20.632Z,11.80
2018-04-08T01:20:48.189Z,10.83
2018-04-08T01:23:15.732Z,7.63
2018-04-08T01:25:43.300Z,9.60
2018-04-08T01:28:10.821Z,9.27
2018-04-08T01:30:38.396Z,7.97
2018-04-08T01:33:05.941Z,10.40
2018-04-08T01:35:33.531Z,11.70
2018-04-08T01:38:01.072Z,7.93
2018-04-08T01:40:28.627Z,7.57
2018-04-08T01:42:56.197Z,10.30
2018-04-08T01:45:23.864Z,11.00
2018-04-08T01:47:51.412Z,7.63
2018-04-08T01:50:18.963Z,8.80
2018-04-08T01:52:46.520Z,10.80
2018-04-08T01:55:14.074Z,8.37
2018-04-08T01:57:42.396Z,8.47
2018-04-08T02:00:09.948Z,9.93
2018-04-08T02:02:37.507Z,8.73
2018-04-08T02:05:05.037Z,8.20
2018-04-08T02:07:33.359Z,8.90
2018-04-08T02:10:00.907Z,8.53
2018-04-08T02:12:28.463Z,8.97
2018-04-08T02:14:56.036Z,8.43
2018-04-08T02:17:23.595Z,13.30
2018-04-08T02:19:51.140Z,9.60
2018-04-08T02:22:18.700Z,9.43
2018-04-08T02:24:46.266Z,10.17
2018-04-08T02:27:13.826Z,14.47
2018-04-08T02:29:41.385Z,7.60
2018-04-08T02:32:08.948Z,7.10
2018-04-08T02:34:36.507Z,9.13
2018-04-08T02:37:04.049Z,7.70
2018-04-08T02:39:31.621Z,8.03
2018-04-08T02:41:59.168Z,8.93
2018-04-08T02:44:26.739Z,10.47
2018-04-08T02:46:54.297Z,10.57
2018-04-08T02:49:21.862Z,10.37
2018-04-08T02:51:49.405Z,10.20
2018-04-08T02:54:16.979Z,9.80
2018-04-08T02:56:44.530Z,8.53
2018-04-08T02:59:12.094Z,8.03
2018-04-08T03:01:39.671Z,7.83
2018-04-08T03:04:07.256Z,8.63
2018-04-08T03:06:34.809Z,12.87
2018-04-08T03:09:02.374Z,10.13
2018-04-08T03:11:29.943Z,8.93
2018-04-08T03:13:57.512Z,8.40
2018-04-08T03:16:25.069Z,8.87
2018-04-08T03:18:52.632Z,9.37
2018-04-08T03:21:20.178Z,12.20
2018-04-08T03:23:47.771Z,11.07
2018-04-08T03:26:16.082Z,10.83
2018-04-08T03:28:43.653Z,12.20
2018-04-08T03:31:11.226Z,14.07
2018-04-08T03:33:38.808Z,8.53
2018-04-08T03:36:06.386Z,8.73
2018-04-08T03:38:34.745Z,8.97
2018-04-08T03:41:02.375Z,7.77
2018-04-08T03:43:29.919Z,12.53
2018-04-08T03:45:57.474Z,11.47
2018-04-08T03:48:25.022Z,9.13
2018-04-08T03:50:52.636Z,10.27
2018-04-08T03:53:20.171Z,9.20
2018-04-08T03:55:47.751Z,10.33
2018-04-08T03:58:15.292Z,9.93
2018-04-08T04:00:42.851Z,8.73
2018-04-08T04:03:10.399Z,10.33
2018-04-08T04:05:37.981Z,9.27
2018-04-08T04:08:05.530Z,14.23
2018-04-08T04:10:33.084Z,8.67
2018-04-08T04:13:00.646Z,9.30
2018-04-08T04:15:28.229Z,9.00
2018-04-08T04:17:55.768Z,9.70
2018-04-08T04:20:35.098Z,10.47
2018-04-08T04:23:14.590Z,8.33
2018-04-08T04:25:53.932Z,10.17
2018-04-08T04:28:22.430Z,13.87
2018-04-08T04:30:50.009Z,10.93
2018-04-08T04:33:17.558Z,9.50
2018-04-08T04:35:45.854Z,9.87
2018-04-08T04:38:13.404Z,8.03
2018-04-08T04:40:40.954Z,9.27
2018-04-08T04:43:09.291Z,8.57
2018-04-08T04:45:37.390Z,10.40
2018-04-08T04:48:05.732Z,9.87
2018-04-08T04:50:33.341Z,9.40
2018-04-08T04:53:01.695Z,12.37
2018-04-08T04:55:30.059Z,10.77
2018-04-08T04:57:57.633Z,7.83
2018-04-08T05:00:25.197Z,10.53
2018-04-08T05:02:52.748Z,9.27
2018-04-08T05:05:20.297Z,7.87
2018-04-08T05:07:47.866Z,11.60
2018-04-08T05:10:16.171Z,13.83
2018-04-08T05:12:44.510Z,9.37
2018-04-08T05:15:12.060Z,9.10
2018-04-08T05:17:39.633Z,7.67
2018-04-08T05:20:07.194Z,8.07
2018-04-08T05:22:34.757Z,8.47
2018-04-08T05:25:02.397Z,9.43
2018-04-08T05:27:29.983Z,8.40
2018-04-08T05:29:57.525Z,9.17
2018-04-08T05:32:25.086Z,8.30
2018-04-08T05:34:52.668Z,6.80
2018-04-08T05:37:20.207Z,9.40
2018-04-08T05:39:47.797Z,8.27
2018-04-08T05:42:15.334Z,11.23
2018-04-08T05:44:42.897Z,11.27
2018-04-08T05:47:10.446Z,7.50
2018-04-08T05:49:38.054Z,7.50
2018-04-08T05:52:05.594Z,6.80
2018-04-08T05:54:33.205Z,9.93
2018-04-08T05:57:00.743Z,8.27
2018-04-08T05:59:29.084Z,10.83
2018-04-08T06:01:56.680Z,9.97
2018-04-08T06:04:25.085Z,6.67
2018-04-08T06:06:52.704Z,8.77
2018-04-08T06:09:20.299Z,9.10
2018-04-08T06:11:47.847Z,8.20
2018-04-08T06:14:16.182Z,6.57
2018-04-08T06:16:43.760Z,12.07
2018-04-08T06:19:11.339Z,7.50
2018-04-08T06:21:39.640Z,8.10
2018-04-08T06:24:07.214Z,8.93
2018-04-08T06:26:34.809Z,6.90
2018-04-08T06:29:02.386Z,7.17
2018-04-08T06:31:29.930Z,6.70
2018-04-08T06:33:57.499Z,6.10
2018-04-08T06:36:25.038Z,6.40
2018-04-08T06:38:52.613Z,8.23
2018-04-08T06:41:23.281Z,8.53
2018-04-08T06:43:50.881Z,7.90
2018-04-08T06:46:18.452Z,6.60
2018-04-08T06:48:46.002Z,6.87
2018-04-08T06:51:13.567Z,7.27
2018-04-08T06:53:41.125Z,7.63
2018-04-08T06:56:08.703Z,6.63
2018-04-08T06:58:36.272Z,6.90
2018-04-08T07:01:03.816Z,8.90
2018-04-08T07:03:31.378Z,6.93
2018-04-08T07:05:58.970Z,7.33
2018-04-08T07:08:26.548Z,8.37
2018-04-08T07:10:54.871Z,6.67
2018-04-08T07:13:22.419Z,7.07
2018-04-08T07:15:50.003Z,7.15
2018-04-08T07:18:17.706Z,7.22
2018-04-08T07:20:45.218Z,10.30
2018-04-08T07:23:12.765Z,8.00
2018-04-08T07:25:40.353Z,8.30
2018-04-08T07:28:07.900Z,5.97
2018-04-08T07:30:35.473Z,6.62
2018-04-08T07:33:03.022Z,7.53
2018-04-08T07:35:30.583Z,7.43
2018-04-08T07:37:58.169Z,8.40
2018-04-08T07:40:25.737Z,7.30
2018-04-08T07:42:53.263Z,8.23
2018-04-08T07:45:20.839Z,7.33
2018-04-08T07:47:48.381Z,6.37
2018-04-08T07:50:15.940Z,7.45
2018-04-08T07:52:43.509Z,8.70
2018-04-08T07:55:11.126Z,6.97
2018-04-08T07:57:38.707Z,7.00
2018-04-08T08:00:06.273Z,6.93
2018-04-08T08:02:33.822Z,7.70
2018-04-08T08:05:01.397Z,9.38
2018-04-08T08:07:28.933Z,6.22
2018-04-08T08:09:56.498Z,6.25
2018-04-08T08:12:24.053Z,6.78
2018-04-08T08:14:51.663Z,6.15
2018-04-08T08:17:19.211Z,7.20
2018-04-08T08:19:46.758Z,6.68
2018-04-08T08:22:14.329Z,6.85
2018-04-08T08:24:41.878Z,6.20
2018-04-08T08:27:09.490Z,7.07
2018-04-08T08:29:37.037Z,6.53
2018-04-08T08:32:04.620Z,8.15
2018-04-08T08:34:32.919Z,7.75
2018-04-08T08:37:00.489Z,10.75
2018-04-08T08:39:28.041Z,6.03
2018-04-08T08:41:55.602Z,6.32
2018-04-08T08:44:23.161Z,5.55
2018-04-08T08:46:50.827Z,6.85
2018-04-08T08:49:18.367Z,5.45
2018-04-08T08:51:45.935Z,5.28
2018-04-08T08:54:13.582Z,6.87
2018-04-08T08:56:41.909Z,6.28
2018-04-08T08:59:09.473Z,6.28
2018-04-08T09:01:37.018Z,6.18
2018-04-08T09:04:04.591Z,5.30
2018-04-08T10:28:30.104Z,4.62
2018-04-08T10:30:57.664Z,3.37
2018-04-08T10:33:25.219Z,4.43
2018-04-08T10:35:52.811Z,4.40
2018-04-08T10:38:21.172Z,4.85
2018-04-08T10:40:48.720Z,3.90
2018-04-08T10:43:16.291Z,3.78
2018-04-08T10:45:44.619Z,3.97
2018-04-08T10:48:12.306Z,3.20
2018-04-08T10:50:39.858Z,4.47
2018-04-08T10:53:07.422Z,3.33
2018-04-08T10:55:34.997Z,4.72
2018-04-08T10:58:02.557Z,5.28
2018-04-08T11:00:30.113Z,4.53
2018-04-08T11:02:58.690Z,3.85
2018-04-08T11:05:26.259Z,4.15
2018-04-08T11:07:53.820Z,3.22
2018-04-08T11:10:21.354Z,3.80
2018-04-08T11:12:48.980Z,4.18
2018-04-08T11:15:17.326Z,5.03
2018-04-08T11:17:44.877Z,5.87
2018-04-08T11:20:12.475Z,4.22
2018-04-08T11:22:41.021Z,4.07
2018-04-08T11:25:08.666Z,4.18
2018-04-08T11:27:36.225Z,3.58
2018-04-08T11:30:03.786Z,9.10
2018-04-08T11:32:31.350Z,4.95
2018-04-08T11:34:58.921Z,3.53
2018-04-08T11:37:26.575Z,3.78
2018-04-08T11:39:54.134Z,5.32
2018-04-08T11:42:21.716Z,3.75
2018-04-08T11:44:49.311Z,11.98
2018-04-08T11:47:17.639Z,8.27
2018-04-08T11:49:46.267Z,8.45
2018-04-08T11:52:14.368Z,5.75
2018-04-08T11:54:41.986Z,10.90
2018-04-08T11:57:09.616Z,5.87
2018-04-08T11:59:37.179Z,5.22
2018-04-08T12:02:04.766Z,6.35
2018-04-08T12:04:32.341Z,5.95
2018-04-08T12:06:59.888Z,6.12
2018-04-08T12:09:27.458Z,5.35
2018-04-08T12:11:54.989Z,5.73
2018-04-08T12:14:22.583Z,3.45
2018-04-08T12:16:50.906Z,5.37
2018-04-08T12:19:18.469Z,8.80
2018-04-08T12:21:46.007Z,4.05
2018-04-08T12:24:14.355Z,3.47
2018-04-08T12:26:46.494Z,5.32
2018-04-08T12:29:14.098Z,11.27
2018-04-08T12:31:41.634Z,4.97
2018-04-08T12:34:09.212Z,3.80
2018-04-08T12:36:36.788Z,5.53
2018-04-08T12:39:04.376Z,4.12
2018-04-08T12:41:32.364Z,4.12
2018-04-08T12:43:59.951Z,5.68
2018-04-08T12:46:27.520Z,6.60
2018-04-08T12:48:55.097Z,6.97
2018-04-08T12:51:23.410Z,4.70
2018-04-08T12:53:50.993Z,11.50
2018-04-08T12:56:18.543Z,5.10
2018-04-08T12:58:46.194Z,5.43
2018-04-08T13:01:13.727Z,9.95
2018-04-08T13:03:42.056Z,3.97
2018-04-08T13:06:09.598Z,5.05
2018-04-08T13:08:37.189Z,4.00
2018-04-08T13:11:04.722Z,5.82
2018-04-08T13:13:32.292Z,5.10
2018-04-08T13:15:59.847Z,8.02
2018-04-08T13:18:27.402Z,6.30
2018-04-08T13:20:54.951Z,10.37
2018-04-08T13:23:22.595Z,8.80
2018-04-08T13:25:50.172Z,4.70
2018-04-08T13:28:17.806Z,7.28
2018-04-08T13:30:46.190Z,6.03
2018-04-08T13:33:14.506Z,5.15
2018-04-08T13:35:42.066Z,4.35
2018-04-08T13:38:09.606Z,5.30
2018-04-08T13:40:37.177Z,3.70
2018-04-08T13:43:04.773Z,6.82
2018-04-08T13:45:32.375Z,7.18
2018-04-08T13:48:01.668Z,7.55
2018-04-08T13:50:30.003Z,4.53
2018-04-08T13:52:57.545Z,7.43
2018-04-08T13:55:25.126Z,3.30
2018-04-08T13:57:52.689Z,6.72
2018-04-08T14:00:20.254Z,4.68
2018-04-08T14:02:47.850Z,3.33
2018-04-08T14:05:16.181Z,4.80
2018-04-08T14:07:43.732Z,5.62
2018-04-08T14:10:11.356Z,7.95
2018-04-08T14:12:38.897Z,9.50
2018-04-08T14:15:06.469Z,6.22
2018-04-08T14:17:34.010Z,3.78
2018-04-08T14:20:01.673Z,3.30
2018-04-08T14:22:29.212Z,4.22
2018-04-08T14:24:56.807Z,4.22
2018-04-08T14:27:24.359Z,4.97
2018-04-08T14:29:51.927Z,3.87
2018-04-08T14:32:19.545Z,4.00
2018-04-08T14:34:47.147Z,4.55
2018-04-08T14:37:14.891Z,9.07
2018-04-08T14:39:42.467Z,3.75
2018-04-08T14:42:10.063Z,4.22
2018-04-08T14:44:37.622Z,3.40
2018-04-08T14:47:05.926Z,10.27
2018-04-08T14:49:33.505Z,4.85
2018-04-08T14:52:01.117Z,7.10
2018-04-08T14:54:28.703Z,4.62
2018-04-08T14:56:56.258Z,4.75
2018-04-08T14:59:23.824Z,5.32
2018-04-08T15:01:51.410Z,5.28
2018-04-08T15:04:19.003Z,7.82
2018-04-08T15:06:46.570Z,6.80
2018-04-08T15:09:14.877Z,9.02
2018-04-08T15:11:42.501Z,6.28
2018-04-08T15:14:10.038Z,4.68
2018-04-08T15:16:38.370Z,8.45
2018-04-08T15:19:06.059Z,6.07
2018-04-08T15:21:34.402Z,6.87
2018-04-08T15:24:01.992Z,11.85
2018-04-08T15:26:29.590Z,5.47
2018-04-08T15:28:57.405Z,8.52
2018-04-08T15:31:25.005Z,6.70
2018-04-08T15:33:53.319Z,11.50
2018-04-08T15:36:21.647Z,8.48
2018-04-08T15:38:49.194Z,6.57
2018-04-08T15:41:16.762Z,9.07
2018-04-08T15:43:44.327Z,7.20
2018-04-08T15:46:11.987Z,6.62
2018-04-08T15:48:39.600Z,7.15
2018-04-08T15:51:07.125Z,4.90
2018-04-08T15:53:34.666Z,5.30
2018-04-08T15:56:02.288Z,9.75
2018-04-08T15:58:30.602Z,5.62
2018-04-08T16:00:58.180Z,8.70
2018-04-08T16:03:25.744Z,11.63
2018-04-08T16:05:54.113Z,17.77
2018-04-08T16:08:21.692Z,24.95
2018-04-08T16:10:49.287Z,20.17
2018-04-08T16:13:17.609Z,8.45
2018-04-08T16:15:45.204Z,6.18
2018-04-08T16:18:12.774Z,4.68
2018-04-08T16:20:40.326Z,6.03
2018-04-08T16:23:08.077Z,20.42
2018-04-08T16:25:35.713Z,7.03
2018-04-08T16:28:03.375Z,6.87
2018-04-08T16:30:30.937Z,8.82
2018-04-08T16:32:58.643Z,7.22
2018-04-08T16:35:26.212Z,17.90
2018-04-08T16:37:53.811Z,7.90
2018-04-08T16:40:21.357Z,8.35
2018-04-08T16:42:48.993Z,8.38
2018-04-08T16:45:16.592Z,9.77
2018-04-08T16:47:44.203Z,6.68
2018-04-08T16:50:12.545Z,8.55
2018-04-08T16:52:40.147Z,9.18
2018-04-08T16:55:07.764Z,6.65
2018-04-08T16:57:35.359Z,6.33
2018-04-08T17:00:03.032Z,7.23
2018-04-08T17:02:30.651Z,6.90
2018-04-08T17:04:58.227Z,9.13
2018-04-08T17:07:25.834Z,8.30
2018-04-08T17:09:54.150Z,7.13
2018-04-08T17:12:21.718Z,7.53
2018-04-08T17:14:49.277Z,7.43
2018-04-08T17:17:16.854Z,9.00
2018-04-08T17:19:44.399Z,9.63
2018-04-08T17:22:11.980Z,11.23
2018-04-08T17:24:39.570Z,8.27
2018-04-08T17:27:07.143Z,7.00
2018-04-08T17:29:34.794Z,6.80
2018-04-08T17:32:03.163Z,11.60
2018-04-08T17:34:30.815Z,12.03
2018-04-08T17:37:02.053Z,8.40
2018-04-08T17:39:29.686Z,8.17
2018-04-08T17:41:57.226Z,7.07
2018-04-08T17:44:24.789Z,19.67
2018-04-08T17:46:53.106Z,11.47
2018-04-08T17:49:20.700Z,9.47
2018-04-08T17:51:49.005Z,10.87
2018-04-08T17:54:16.698Z,9.07
2018-04-08T17:56:44.358Z,9.10
2018-04-08T17:59:12.111Z,10.03
2018-04-08T18:01:39.724Z,9.80
2018-04-08T18:04:08.842Z,8.77
2018-04-08T18:06:37.178Z,13.00
2018-04-08T18:09:04.767Z,11.43
2018-04-08T18:11:32.373Z,10.00
2018-04-08T18:14:00.045Z,10.37
2018-04-08T18:16:27.602Z,10.23
2018-04-08T18:18:55.155Z,9.83
2018-04-08T18:21:22.760Z,14.03
2018-04-08T18:23:50.319Z,11.63
2018-04-08T18:26:17.904Z,10.60
2018-04-08T18:28:46.322Z,11.47
2018-04-08T18:31:13.883Z,12.10
2018-04-08T18:33:41.457Z,9.73
2018-04-08T18:36:09.187Z,16.43
2018-04-08T18:38:36.745Z,14.03
2018-04-08T18:41:04.326Z,12.30
2018-04-08T18:43:31.992Z,9.93
2018-04-08T18:45:59.574Z,12.90
2018-04-08T18:48:27.137Z,12.10
2018-04-08T18:50:54.764Z,14.77
2018-04-08T18:53:22.330Z,13.57
2018-04-08T18:55:49.981Z,11.30
2018-04-08T18:58:17.515Z,13.87
2018-04-08T19:00:45.833Z,11.57
2018-04-08T19:03:13.406Z,14.03
2018-04-08T19:05:40.960Z,10.73
2018-04-08T19:08:08.551Z,12.13
2018-04-08T19:10:36.106Z,13.73
2018-04-08T19:13:03.686Z,9.63
2018-04-08T19:15:31.228Z,14.73
2018-04-08T19:18:02.596Z,11.10
2018-04-08T19:20:30.135Z,12.17
2018-04-08T19:22:57.723Z,13.10
2018-04-08T19:25:26.030Z,15.47
2018-04-08T19:27:53.610Z,19.27
2018-04-08T19:30:23.756Z,17.73
2018-04-08T19:32:51.329Z,15.23
2018-04-08T19:35:18.863Z,14.57
2018-04-08T19:37:46.473Z,17.23
2018-04-08T19:40:14.032Z,16.27
2018-04-08T19:42:41.633Z,18.77
2018-04-08T19:45:09.207Z,16.73
2018-04-08T19:47:36.785Z,14.80
2018-04-08T19:50:04.343Z,16.73
2018-04-08T19:52:33.183Z,16.70
2018-04-08T19:55:00.741Z,12.87
2018-04-08T19:57:28.297Z,14.20
2018-04-08T19:59:56.609Z,17.37
2018-04-08T20:02:24.158Z,10.87
2018-04-08T20:04:51.762Z,12.83
2018-04-08T20:07:19.314Z,13.93
2018-04-08T20:09:46.935Z,10.37
2018-04-08T20:12:14.537Z,12.17
2018-04-08T20:14:42.143Z,15.13
2018-04-08T20:17:09.719Z,11.90
2018-04-08T20:19:37.326Z,18.10
2018-04-08T20:22:04.949Z,11.97
2018-04-08T20:24:32.560Z,14.40
2018-04-08T20:27:00.918Z,14.83
2018-04-08T20:29:28.484Z,13.17
2018-04-08T20:31:56.028Z,13.33
2018-04-08T20:34:23.643Z,14.30
2018-04-08T20:36:51.212Z,18.43
2018-04-08T20:39:18.819Z,15.00
2018-04-08T20:41:46.374Z,18.23
2018-04-08T20:44:13.941Z,16.47
2018-04-08T20:46:42.265Z,21.53
2018-04-08T20:49:10.661Z,19.43
2018-04-08T20:51:38.961Z,23.40
2018-04-08T20:54:07.547Z,22.47
2018-04-08T20:56:35.198Z,22.63
2018-04-08T20:59:02.765Z,20.10
2018-04-08T21:01:31.310Z,19.93
2018-04-08T21:03:59.694Z,23.07
2018-04-08T21:06:28.003Z,25.53
2018-04-08T21:08:55.613Z,22.93
2018-04-08T21:11:23.158Z,21.40
2018-04-08T21:13:50.777Z,22.53
2018-04-08T21:16:18.337Z,20.90
2018-04-08T21:18:45.936Z,23.13
2018-04-08T21:21:13.478Z,23.90
2018-04-08T21:23:41.086Z,19.73
2018-04-08T21:26:08.713Z,22.33
2018-04-08T21:28:36.277Z,22.07
2018-04-08T21:31:03.835Z,20.83
2018-04-08T21:33:31.395Z,23.13
2018-04-08T21:35:58.954Z,24.73
2018-04-08T21:38:26.523Z,21.13
2018-04-08T21:40:54.119Z,21.80
2018-04-08T21:43:22.413Z,19.27
2018-04-08T21:45:50.000Z,21.27
2018-04-08T21:48:17.575Z,22.50
2018-04-08T21:50:45.138Z,25.03
2018-04-08T21:53:12.698Z,21.67
2018-04-08T21:55:40.271Z,24.87
2018-04-08T21:58:07.817Z,19.43
2018-04-08T22:00:35.373Z,22.37
2018-04-08T22:03:02.923Z,28.03
2018-04-08T22:05:30.485Z,23.57
2018-04-08T22:07:58.056Z,21.67
2018-04-08T22:10:25.612Z,16.60
2018-04-08T22:12:53.172Z,15.93
2018-04-08T22:15:20.729Z,18.73
2018-04-08T22:17:48.276Z,18.27
2018-04-08T22:20:15.892Z,21.33
2018-04-08T22:22:44.199Z,25.80
2018-04-08T22:25:11.768Z,20.77
2018-04-08T22:27:40.248Z,21.57
2018-04-08T22:30:07.825Z,22.83
2018-04-08T22:32:35.391Z,20.03
2018-04-08T22:35:02.961Z,19.07
2018-04-08T22:37:31.287Z,20.20
2018-04-08T22:39:59.626Z,21.27
2018-04-08T22:42:27.202Z,20.73
2018-04-08T22:44:54.796Z,20.50
2018-04-08T22:47:22.340Z,21.47
2018-04-08T22:49:50.688Z,19.47
2018-04-08T22:52:18.237Z,21.87
2018-04-08T22:54:45.791Z,21.40
2018-04-08T22:57:13.367Z,24.50
2018-04-08T22:59:40.943Z,24.03
2018-04-08T23:02:08.504Z,20.03
2018-04-08T23:04:36.053Z,23.07
2018-04-08T23:07:03.616Z,20.30
2018-04-08T23:09:31.241Z,20.47
2018-04-08T23:11:58.815Z,23.40
2018-04-08T23:14:26.370Z,26.27
2018-04-08T23:16:54.206Z,23.77
2018-04-08T23:19:21.746Z,24.00
2018-04-08T23:21:50.047Z,25.47
2018-04-08T23:24:17.625Z,25.10
2018-04-08T23:26:45.242Z,24.63
2018-04-08T23:29:13.577Z,20.93
2018-04-08T23:31:41.121Z,24.73
2018-04-08T23:34:08.873Z,21.47
2018-04-08T23:36:36.654Z,23.70
2018-04-08T23:39:04.234Z,23.53
2018-04-08T23:41:31.788Z,24.43
2018-04-08T23:43:59.370Z,21.13
2018-04-08T23:46:26.911Z,22.30
2018-04-08T23:48:54.507Z,22.30
2018-04-08T23:51:22.821Z,19.67
2018-04-08T23:53:50.393Z,22.47
2018-04-08T23:56:17.946Z,29.97
2018-04-08T23:58:45.551Z,21.50
